Fort Nelson, Canada
Current Conditions -  °F | °C
As of 7:00 PM on Friday 28 Nov 2014 (Local Time) from CYYE Reporting Station
Clear Clear  
Wind Chill: -15°   Ceiling: Unl
Heat Index: -15°   Visibility: 15mi
Dew Point: -18°   Wind: 3mph
Humidity: 84%   Direction: 160°SSE
Pressure: 30"   Gusts: NA
Location:  58.8°N, 122.7°W
Report Text: CYYE 290200Z 16003KT 15SM SKC M26/M28 A3000 RMK SLP210
Loading
Personal Weather Stations






























Interactive Weather Map New forecast layout! Learn more

10-Day Weather Forecast

Advertisements
Track Severe Weather on mobile